createdAt,value
2018-01-27T00:00:20.801Z,0
2018-01-27T00:01:21.097Z,0
2018-01-27T00:02:20.786Z,0
2018-01-27T00:03:21.021Z,0
2018-01-27T00:04:21.340Z,0
2018-01-27T00:05:20.987Z,0
2018-01-27T00:06:20.973Z,0
2018-01-27T00:07:20.688Z,0
2018-01-27T00:08:21.295Z,0
2018-01-27T00:09:20.691Z,0
2018-01-27T00:10:21.197Z,0
2018-01-27T00:11:21.186Z,0
2018-01-27T00:12:20.873Z,0
2018-01-27T00:13:20.607Z,0
2018-01-27T00:14:21.116Z,0
2018-01-27T00:15:20.974Z,0
2018-01-27T00:16:20.834Z,0
2018-01-27T00:17:20.796Z,0
2018-01-27T00:18:20.530Z,0
2018-01-27T00:19:21.048Z,0
2018-01-27T00:20:20.499Z,0
2018-01-27T00:21:20.755Z,0
2018-01-27T00:22:20.723Z,0
2018-01-27T00:23:21.009Z,0
2018-01-27T00:24:20.967Z,0
2018-01-27T00:25:20.522Z,0
2018-01-27T00:26:20.670Z,0
2018-01-27T00:27:20.676Z,0
2018-01-27T00:28:20.629Z,0
2018-01-27T00:29:20.662Z,0
2018-01-27T00:30:20.329Z,0
2018-01-27T00:31:20.322Z,0
2018-01-27T00:32:20.583Z,0
2018-01-27T00:33:20.623Z,0
2018-01-27T00:34:20.556Z,0
2018-01-27T00:35:20.549Z,0
2018-01-27T00:36:20.242Z,0
2018-01-27T00:37:20.516Z,0
2018-01-27T00:38:20.209Z,0
2018-01-27T00:39:20.193Z,0
2018-01-27T00:40:20.455Z,0
2018-01-27T00:41:20.437Z,0
2018-01-27T00:42:20.438Z,0
2018-01-27T00:43:20.410Z,0
2018-01-27T00:44:20.400Z,0
2018-01-27T00:45:20.672Z,0
2018-01-27T00:46:20.634Z,0
2018-01-27T00:47:20.096Z,0
2018-01-27T00:48:20.062Z,0
2018-01-27T00:49:20.069Z,0
2018-01-27T00:50:20.042Z,0
2018-01-27T00:51:20.575Z,0
2018-01-27T00:52:20.282Z,0
2018-01-27T00:53:19.980Z,0
2018-01-27T00:54:20.506Z,0
2018-01-27T00:55:20.223Z,0
2018-01-27T00:56:19.950Z,0
2018-01-27T00:57:19.948Z,0
2018-01-27T00:58:19.937Z,0
2018-01-27T00:59:20.461Z,0
2018-01-27T01:00:20.172Z,0
2018-01-27T01:01:20.167Z,0
2018-01-27T01:02:20.140Z,0
2018-01-27T01:03:19.838Z,0
2018-01-27T01:04:20.369Z,0
2018-01-27T01:05:19.801Z,0
2018-01-27T01:06:20.417Z,0
2018-01-27T01:07:19.954Z,0
2018-01-27T01:08:20.030Z,0
2018-01-27T01:09:19.742Z,0
2018-01-27T01:10:19.727Z,0
2018-01-27T01:11:19.714Z,0
2018-01-27T01:12:19.998Z,0
2018-01-27T01:13:19.681Z,0
2018-01-27T01:14:19.669Z,0
2018-01-27T01:15:19.651Z,0
2018-01-27T01:16:19.918Z,0
2018-01-27T01:17:19.901Z,0
2018-01-27T01:18:19.880Z,0
2018-01-27T01:19:19.604Z,0
2018-01-27T01:20:20.146Z,0
2018-01-27T01:21:19.896Z,0
2018-01-27T01:22:19.552Z,0
2018-01-27T01:23:19.532Z,0
2018-01-27T01:24:19.978Z,0
2018-01-27T01:25:19.794Z,0
2018-01-27T01:26:20.037Z,0
2018-01-27T01:27:20.016Z,0
2018-01-27T01:28:19.754Z,0
2018-01-27T01:29:19.461Z,0
2018-01-27T01:30:19.970Z,0
2018-01-27T01:31:19.428Z,0
2018-01-27T01:32:19.411Z,0
2018-01-27T01:33:19.392Z,0
2018-01-27T01:34:19.376Z,0
2018-01-27T01:35:19.627Z,0
2018-01-27T01:36:19.626Z,0
2018-01-27T01:37:19.602Z,0
2018-01-27T01:38:19.585Z,0
2018-01-27T01:39:19.287Z,0
2018-01-27T01:40:19.569Z,0
2018-01-27T01:41:19.533Z,0
2018-01-27T01:42:19.519Z,0
2018-01-27T01:43:19.269Z,0
2018-01-27T01:44:19.217Z,0
2018-01-27T01:45:19.234Z,0
2018-01-27T01:46:19.728Z,0
2018-01-27T01:47:19.463Z,0
2018-01-27T01:48:19.489Z,0
2018-01-27T01:49:19.141Z,0
2018-01-27T01:50:19.152Z,0
2018-01-27T01:51:19.108Z,0
2018-01-27T01:52:19.389Z,0
2018-01-27T01:53:19.648Z,0
2018-01-27T01:54:19.612Z,0
2018-01-27T01:55:19.598Z,0
2018-01-27T01:56:19.033Z,0
2018-01-27T01:57:19.024Z,0
2018-01-27T01:58:19.010Z,0
2018-01-27T01:59:18.989Z,0
2018-01-27T02:00:19.246Z,0
2018-01-27T02:01:19.270Z,0
2018-01-27T02:02:19.213Z,0
2018-01-27T02:03:19.230Z,0
2018-01-27T02:04:18.921Z,0
2018-01-27T02:05:19.189Z,0
2018-01-27T02:06:18.890Z,0
2018-01-27T02:07:19.453Z,0
2018-01-27T02:08:19.130Z,0
2018-01-27T02:09:19.396Z,0
2018-01-27T02:10:18.827Z,0
2018-01-27T02:11:18.826Z,0
2018-01-27T02:12:19.081Z,0
2018-01-27T02:13:18.799Z,0
2018-01-27T02:14:18.766Z,0
2018-01-27T02:15:18.750Z,0
2018-01-27T02:16:19.558Z,0
2018-01-27T02:17:18.720Z,0
2018-01-27T02:18:19.276Z,0
2018-01-27T02:19:18.706Z,0
2018-01-27T02:20:19.274Z,0
2018-01-27T02:21:18.941Z,0
2018-01-27T02:22:18.915Z,0
2018-01-27T02:23:18.902Z,0
2018-01-27T02:24:19.160Z,0
2018-01-27T02:25:18.887Z,0
2018-01-27T02:26:18.872Z,0
2018-01-27T02:27:18.857Z,0
2018-01-27T02:28:18.570Z,0
2018-01-27T02:29:18.826Z,0
2018-01-27T02:30:18.812Z,0
2018-01-27T02:31:19.063Z,0
2018-01-27T02:32:18.768Z,0
2018-01-27T02:33:18.753Z,0
2018-01-27T02:34:18.769Z,0
2018-01-27T02:35:18.448Z,0
2018-01-27T02:36:18.457Z,0
2018-01-27T02:37:18.697Z,0
2018-01-27T02:38:18.687Z,0
2018-01-27T02:39:18.697Z,0
2018-01-27T02:40:18.921Z,0
2018-01-27T02:41:18.369Z,0
2018-01-27T02:42:18.368Z,0
2018-01-27T02:43:18.620Z,0
2018-01-27T02:44:18.595Z,0
2018-01-27T02:45:18.579Z,0
2018-01-27T02:46:18.603Z,0
2018-01-27T02:47:18.274Z,0
2018-01-27T02:48:18.267Z,0
2018-01-27T02:49:18.807Z,0
2018-01-27T02:50:18.798Z,0
2018-01-27T02:51:18.759Z,0
2018-01-27T02:52:18.485Z,0
2018-01-27T02:53:18.504Z,0
2018-01-27T02:54:18.166Z,0
2018-01-27T02:55:18.166Z,0
2018-01-27T02:56:18.675Z,0
2018-01-27T02:57:18.674Z,0
2018-01-27T02:58:18.113Z,0
2018-01-27T02:59:18.088Z,0
2018-01-27T03:00:18.092Z,0
2018-01-27T03:01:18.082Z,0
2018-01-27T03:02:18.316Z,0
2018-01-27T03:03:18.324Z,0
2018-01-27T03:04:18.014Z,0
2018-01-27T03:05:18.269Z,0
2018-01-27T03:06:17.988Z,0
2018-01-27T03:07:17.974Z,0
2018-01-27T03:08:18.241Z,0
2018-01-27T03:09:17.937Z,0
2018-01-27T03:10:17.931Z,0
2018-01-27T03:11:18.198Z,0
2018-01-27T03:12:18.458Z,0
2018-01-27T03:13:18.710Z,0
2018-01-27T03:14:17.891Z,0
2018-01-27T03:15:18.137Z,0
2018-01-27T03:16:17.835Z,0
2018-01-27T03:17:17.849Z,0
2018-01-27T03:18:18.081Z,0
2018-01-27T03:19:17.797Z,0
2018-01-27T03:20:18.326Z,0
2018-01-27T03:21:17.764Z,0
2018-01-27T03:22:17.744Z,0
2018-01-27T03:23:17.731Z,0
2018-01-27T03:24:18.017Z,0
2018-01-27T03:25:17.977Z,0
2018-01-27T03:26:17.977Z,0
2018-01-27T03:27:18.214Z,0
2018-01-27T03:28:17.947Z,0
2018-01-27T03:29:17.917Z,0
2018-01-27T03:30:17.624Z,0
2018-01-27T03:31:17.614Z,0
2018-01-27T03:32:17.878Z,0
2018-01-27T03:33:17.581Z,0
2018-01-27T03:34:17.867Z,0
2018-01-27T03:35:17.906Z,0
2018-01-27T03:36:17.532Z,0
2018-01-27T03:37:17.540Z,0
2018-01-27T03:38:17.774Z,0
2018-01-27T03:39:17.500Z,0
2018-01-27T03:40:18.039Z,0
2018-01-27T03:41:17.729Z,0
2018-01-27T03:42:17.987Z,0
2018-01-27T03:43:17.975Z,0
2018-01-27T03:44:17.689Z,0
2018-01-27T03:45:17.688Z,0
2018-01-27T03:46:17.413Z,0
2018-01-27T03:47:17.676Z,0
2018-01-27T03:48:17.913Z,0
2018-01-27T03:49:17.339Z,0
2018-01-27T03:50:17.324Z,0
2018-01-27T03:51:17.305Z,0
2018-01-27T03:52:17.568Z,0
2018-01-27T03:53:17.558Z,0
2018-01-27T03:54:17.538Z,0
2018-01-27T03:55:17.522Z,0
2018-01-27T03:56:17.240Z,0
2018-01-27T03:57:17.489Z,0
2018-01-27T03:58:17.203Z,0
2018-01-27T03:59:17.469Z,0
2018-01-27T04:00:17.716Z,0
2018-01-27T04:01:17.438Z,0
2018-01-27T04:02:17.143Z,0
2018-01-27T04:03:17.434Z,0
2018-01-27T04:04:17.130Z,0
2018-01-27T04:05:17.417Z,0
2018-01-27T04:06:17.353Z,0
2018-01-27T04:07:17.610Z,0
2018-01-27T04:08:17.558Z,0
2018-01-27T04:09:17.033Z,0
2018-01-27T04:10:17.026Z,0
2018-01-27T04:11:17.020Z,0
2018-01-27T04:12:17.537Z,0
2018-01-27T04:13:16.980Z,0
2018-01-27T04:14:17.242Z,0
2018-01-27T04:15:17.222Z,0
2018-01-27T04:16:16.932Z,0
2018-01-27T04:17:17.475Z,0
2018-01-27T04:18:16.916Z,0
2018-01-27T04:19:16.886Z,0
2018-01-27T04:20:16.872Z,0
2018-01-27T04:21:17.130Z,0
2018-01-27T04:22:16.930Z,0
2018-01-27T04:23:16.824Z,0
2018-01-27T04:24:17.099Z,0
2018-01-27T04:25:17.076Z,0
2018-01-27T04:26:17.325Z,0
2018-01-27T04:27:16.784Z,0
2018-01-27T04:28:16.751Z,0
2018-01-27T04:29:16.754Z,0
2018-01-27T04:30:16.739Z,0
2018-01-27T04:31:17.250Z,0
2018-01-27T04:32:16.968Z,0
2018-01-27T04:33:16.709Z,0
2018-01-27T04:34:16.934Z,0
2018-01-27T04:35:16.661Z,0
2018-01-27T04:36:16.632Z,0
2018-01-27T04:37:16.886Z,0
2018-01-27T04:38:16.602Z,0
2018-01-27T04:39:16.587Z,0
2018-01-27T04:40:16.852Z,0
2018-01-27T04:41:17.101Z,0
2018-01-27T04:42:17.083Z,0
2018-01-27T04:43:16.803Z,0
2018-01-27T04:44:16.522Z,0
2018-01-27T04:45:16.768Z,0
2018-01-27T04:46:16.763Z,0
2018-01-27T04:47:17.077Z,0
2018-01-27T04:48:16.995Z,0
2018-01-27T04:49:16.709Z,0
2018-01-27T04:50:16.983Z,0
2018-01-27T04:51:16.408Z,0
2018-01-27T04:52:16.673Z,0
2018-01-27T04:53:16.375Z,0
2018-01-27T04:54:16.898Z,0
2018-01-27T04:55:16.428Z,0
2018-01-27T04:56:16.345Z,0
2018-01-27T04:57:16.595Z,0
2018-01-27T04:58:16.588Z,0
2018-01-27T04:59:16.555Z,0
2018-01-27T05:00:16.594Z,0
2018-01-27T05:01:16.549Z,0
2018-01-27T05:02:16.260Z,0
2018-01-27T05:03:16.226Z,0
2018-01-27T05:04:16.482Z,0
2018-01-27T05:05:17.029Z,0
2018-01-27T05:06:16.452Z,0
2018-01-27T05:07:16.175Z,0
2018-01-27T05:08:16.153Z,0
2018-01-27T05:09:16.432Z,0
2018-01-27T05:10:16.144Z,0
2018-01-27T05:11:16.121Z,0
2018-01-27T05:12:16.670Z,0
2018-01-27T05:13:16.360Z,0
2018-01-27T05:14:16.332Z,0
2018-01-27T05:15:16.048Z,0
2018-01-27T05:16:16.571Z,0
2018-01-27T05:17:16.290Z,0
2018-01-27T05:18:16.274Z,0
2018-01-27T05:19:16.271Z,0
2018-01-27T05:20:15.972Z,0
2018-01-27T05:21:16.256Z,0
2018-01-27T05:22:15.983Z,0
2018-01-27T05:23:15.925Z,0
2018-01-27T05:24:16.478Z,0
2018-01-27T05:25:15.901Z,0
2018-01-27T05:26:16.160Z,0
2018-01-27T05:27:16.162Z,0
2018-01-27T05:28:16.135Z,0
2018-01-27T05:29:15.841Z,0
2018-01-27T05:30:15.827Z,0
2018-01-27T05:31:15.839Z,0
2018-01-27T05:32:15.824Z,0
2018-01-27T05:33:16.332Z,0
2018-01-27T05:34:16.039Z,0
2018-01-27T05:35:16.308Z,0
2018-01-27T05:36:15.732Z,0
2018-01-27T05:37:15.994Z,0
2018-01-27T05:38:16.265Z,0
2018-01-27T05:39:15.959Z,0
2018-01-27T05:40:16.253Z,0
2018-01-27T05:41:15.937Z,0
2018-01-27T05:42:15.915Z,0
2018-01-27T05:43:15.905Z,0
2018-01-27T05:44:16.160Z,0
2018-01-27T05:45:15.613Z,0
2018-01-27T05:46:15.603Z,0
2018-01-27T05:47:15.837Z,0
2018-01-27T05:48:15.557Z,0
2018-01-27T05:49:15.539Z,0
2018-01-27T05:50:15.530Z,0
2018-01-27T05:51:15.781Z,0
2018-01-27T05:52:15.518Z,0
2018-01-27T05:53:15.762Z,0
2018-01-27T05:54:15.739Z,0
2018-01-27T05:55:15.454Z,0
2018-01-27T05:56:15.720Z,0
2018-01-27T05:57:15.422Z,0
2018-01-27T05:58:15.681Z,0
2018-01-27T05:59:15.947Z,0
2018-01-27T06:00:15.377Z,0
2018-01-27T06:01:15.640Z,0
2018-01-27T06:02:15.891Z,0
2018-01-27T06:03:16.165Z,0
2018-01-27T06:04:15.323Z,0
2018-01-27T06:05:15.622Z,0
2018-01-27T06:06:15.575Z,0
2018-01-27T06:07:15.593Z,0
2018-01-27T06:08:15.549Z,0
2018-01-27T06:09:15.247Z,0
2018-01-27T06:10:15.773Z,0
2018-01-27T06:11:15.235Z,0
2018-01-27T06:12:15.200Z,0
2018-01-27T06:13:15.453Z,0
2018-01-27T06:14:15.172Z,0
2018-01-27T06:15:15.436Z,0
2018-01-27T06:16:15.449Z,0
2018-01-27T06:17:15.125Z,0
2018-01-27T06:18:15.381Z,0
2018-01-27T06:19:15.637Z,0
2018-01-27T06:20:15.355Z,0
2018-01-27T06:21:15.376Z,0
2018-01-27T06:22:15.060Z,0
2018-01-27T06:23:15.313Z,0
2018-01-27T06:24:15.024Z,0
2018-01-27T06:25:15.282Z,0
2018-01-27T06:26:14.991Z,4
2018-01-27T06:27:15.530Z,0
2018-01-27T06:28:14.960Z,4
2018-01-27T06:29:14.964Z,0
2018-01-27T06:30:15.210Z,8
2018-01-27T06:31:15.201Z,4
2018-01-27T06:32:15.178Z,8
2018-01-27T06:33:15.161Z,8
2018-01-27T06:34:15.155Z,12
2018-01-27T06:35:15.147Z,16
2018-01-27T06:36:14.842Z,20
2018-01-27T06:37:14.847Z,24
2018-01-27T06:38:14.812Z,24
2018-01-27T06:39:14.796Z,32
2018-01-27T06:40:15.336Z,32
2018-01-27T06:41:14.776Z,40
2018-01-27T06:42:15.043Z,44
2018-01-27T06:43:14.737Z,56
2018-01-27T06:44:14.998Z,64
2018-01-27T06:45:14.710Z,72
2018-01-27T06:46:14.970Z,80
2018-01-27T06:47:14.697Z,88
2018-01-27T06:48:14.715Z,96
2018-01-27T06:49:14.978Z,100
2018-01-27T06:50:14.930Z,100
2018-01-27T06:51:14.893Z,96
2018-01-27T06:52:14.875Z,96
2018-01-27T06:53:14.591Z,100
2018-01-27T06:54:14.862Z,108
2018-01-27T06:55:14.558Z,120
2018-01-27T06:56:15.081Z,124
2018-01-27T06:57:14.838Z,132
2018-01-27T06:58:14.516Z,140
2018-01-27T06:59:15.043Z,144
2018-01-27T07:00:15.037Z,148
2018-01-27T07:01:14.486Z,148
2018-01-27T07:02:14.758Z,144
2018-01-27T07:03:14.985Z,144
2018-01-27T07:04:14.979Z,148
2018-01-27T07:05:14.976Z,148
2018-01-27T07:06:14.715Z,152
2018-01-27T07:07:14.927Z,164
2018-01-27T07:08:14.645Z,172
2018-01-27T07:09:14.906Z,184
2018-01-27T07:10:14.606Z,196
2018-01-27T07:11:14.336Z,204
2018-01-27T07:12:14.583Z,196
2018-01-27T07:13:14.303Z,188
2018-01-27T07:14:14.291Z,176
2018-01-27T07:15:14.571Z,168
2018-01-27T07:16:14.277Z,172
2018-01-27T07:17:14.233Z,184
2018-01-27T07:18:14.497Z,204
2018-01-27T07:19:14.202Z,216
2018-01-27T07:20:14.191Z,220
2018-01-27T07:21:14.445Z,216
2018-01-27T07:22:14.431Z,220
2018-01-27T07:23:14.417Z,228
2018-01-27T07:24:14.950Z,232
2018-01-27T07:25:14.656Z,252
2018-01-27T07:26:14.688Z,276
2018-01-27T07:27:14.356Z,320
2018-01-27T07:28:14.888Z,340
2018-01-27T07:29:14.321Z,356
2018-01-27T07:30:14.314Z,384
2018-01-27T07:31:14.765Z,428
2018-01-27T07:32:14.323Z,476
2018-01-27T07:33:14.273Z,528
2018-01-27T07:34:14.532Z,552
2018-01-27T07:35:13.965Z,564
2018-01-27T07:36:14.528Z,580
2018-01-27T07:37:13.939Z,652
2018-01-27T07:38:14.192Z,764
2018-01-27T07:39:14.185Z,900
2018-01-27T07:40:14.223Z,1028
2018-01-27T07:41:14.216Z,1144
2018-01-27T07:42:13.864Z,1196
2018-01-27T07:43:13.850Z,1188
2018-01-27T07:44:14.404Z,1180
2018-01-27T07:45:14.091Z,1164
2018-01-27T07:46:14.092Z,1164
2018-01-27T07:47:14.340Z,1188
2018-01-27T07:48:13.791Z,1212
2018-01-27T07:49:14.053Z,1240
2018-01-27T07:50:13.754Z,1272
2018-01-27T07:51:14.292Z,1292
2018-01-27T07:52:13.745Z,1332
2018-01-27T07:53:13.982Z,1380
2018-01-27T07:54:13.687Z,1432
2018-01-27T07:55:13.951Z,1500
2018-01-27T07:56:13.951Z,1592
2018-01-27T07:57:13.911Z,1692
2018-01-27T07:58:14.445Z,1756
2018-01-27T07:59:14.169Z,1764
2018-01-27T08:00:13.885Z,1744
2018-01-27T08:01:13.856Z,1704
2018-01-27T08:02:14.109Z,1668
2018-01-27T08:03:13.566Z,1656
2018-01-27T08:04:13.539Z,1684
2018-01-27T08:05:13.822Z,1616
2018-01-27T08:06:13.825Z,1544
2018-01-27T08:07:13.501Z,1520
2018-01-27T08:08:13.757Z,1580
2018-01-27T08:09:13.886Z,1772
2018-01-27T08:10:13.452Z,1700
2018-01-27T08:11:13.459Z,1724
2018-01-27T08:12:13.433Z,1744
2018-01-27T08:13:13.691Z,1776
2018-01-27T08:14:13.396Z,1740
2018-01-27T08:15:13.657Z,1772
2018-01-27T08:16:13.660Z,1728
2018-01-27T08:17:13.352Z,1732
2018-01-27T08:18:13.936Z,1836
2018-01-27T08:19:13.900Z,1920
2018-01-27T08:20:13.317Z,1912
2018-01-27T08:21:13.317Z,1884
2018-01-27T08:22:13.822Z,1880
2018-01-27T08:23:14.078Z,1828
2018-01-27T08:24:13.249Z,1784
2018-01-27T08:25:13.512Z,1708
2018-01-27T08:26:14.031Z,1552
2018-01-27T08:27:13.751Z,1484
2018-01-27T08:28:13.501Z,1520
2018-01-27T08:29:13.443Z,1588
2018-01-27T08:30:13.720Z,1684
2018-01-27T08:31:13.161Z,1788
2018-01-27T08:32:13.422Z,1876
2018-01-27T08:33:13.393Z,1924
2018-01-27T08:34:13.377Z,1996
2018-01-27T08:35:13.357Z,2004
2018-01-27T08:36:13.077Z,1888
2018-01-27T08:37:13.606Z,1792
2018-01-27T08:38:13.334Z,1712
2018-01-27T08:39:13.595Z,1652
2018-01-27T08:40:13.307Z,1584
2018-01-27T08:41:13.004Z,1508
2018-01-27T08:42:13.258Z,1440
2018-01-27T08:43:13.542Z,1384
2018-01-27T08:44:13.227Z,1344
2018-01-27T08:45:13.505Z,1332
2018-01-27T08:46:13.203Z,1356
2018-01-27T08:47:13.734Z,1372
2018-01-27T08:48:13.181Z,1392
2018-01-27T08:49:13.165Z,1400
2018-01-27T08:50:12.876Z,1416
2018-01-27T08:51:13.129Z,1448
2018-01-27T08:52:12.843Z,1484
2018-01-27T08:53:13.098Z,1508
2018-01-27T08:54:13.650Z,1540
2018-01-27T08:55:13.076Z,1588
2018-01-27T08:56:13.059Z,1612
2018-01-27T08:57:13.046Z,1596
2018-01-27T08:58:13.032Z,1564
2018-01-27T08:59:13.013Z,1536
2018-01-27T09:00:13.306Z,1488
2018-01-27T09:01:12.718Z,1460
2018-01-27T09:02:12.699Z,1428
2018-01-27T09:03:13.242Z,1392
2018-01-27T09:04:12.948Z,1364
2018-01-27T09:05:12.939Z,1328
2018-01-27T09:06:12.643Z,1280
2018-01-27T09:07:12.641Z,1192
2018-01-27T09:08:13.180Z,1128
2018-01-27T09:09:12.869Z,1104
2018-01-27T09:10:12.859Z,1084
2018-01-27T09:11:12.582Z,1172
2018-01-27T09:12:12.825Z,1228
2018-01-27T09:13:12.551Z,1212
2018-01-27T09:14:13.084Z,1196
2018-01-27T09:15:13.064Z,1244
2018-01-27T09:16:12.902Z,1396
2018-01-27T09:17:12.493Z,1548
2018-01-27T09:18:12.756Z,1680
2018-01-27T09:19:12.754Z,1812
2018-01-27T09:20:12.468Z,2192
2018-01-27T09:21:12.427Z,2264
2018-01-27T09:22:12.986Z,2868
2018-01-27T09:23:12.697Z,3172
2018-01-27T09:24:12.679Z,3180
2018-01-27T09:25:12.370Z,3160
2018-01-27T09:26:12.653Z,3168
2018-01-27T09:27:12.648Z,3232
2018-01-27T09:28:12.621Z,3352
2018-01-27T09:29:12.338Z,3496
2018-01-27T09:30:12.573Z,3648
2018-01-27T09:31:12.837Z,3732
2018-01-27T09:32:12.548Z,3780
2018-01-27T09:33:12.557Z,3836
2018-01-27T09:34:12.532Z,3876
2018-01-27T09:35:12.504Z,3848
2018-01-27T09:36:12.227Z,3860
2018-01-27T09:37:12.480Z,3988
2018-01-27T09:38:12.734Z,4184
2018-01-27T09:39:12.774Z,4404
2018-01-27T09:40:12.503Z,4636
2018-01-27T09:41:12.421Z,4828
2018-01-27T09:42:12.401Z,4896
2018-01-27T09:43:12.412Z,4920
2018-01-27T09:44:12.372Z,4896
2018-01-27T09:45:12.368Z,4868
2018-01-27T09:46:12.078Z,4912
2018-01-27T09:47:12.356Z,4964
2018-01-27T09:48:12.380Z,5056
2018-01-27T09:49:12.598Z,5088
2018-01-27T09:50:12.298Z,5100
2018-01-27T09:51:12.281Z,5148
2018-01-27T09:52:12.559Z,5164
2018-01-27T09:53:12.258Z,5092
2018-01-27T09:54:11.979Z,5036
2018-01-27T09:55:11.957Z,4972
2018-01-27T09:56:12.485Z,4932
2018-01-27T09:57:11.935Z,4924
2018-01-27T09:58:12.470Z,4920
2018-01-27T09:59:12.173Z,4912
2018-01-27T10:00:12.174Z,4912
2018-01-27T10:01:11.881Z,4916
2018-01-27T10:02:12.155Z,4932
2018-01-27T10:03:12.408Z,4912
2018-01-27T10:04:12.107Z,4912
2018-01-27T10:05:12.102Z,4932
2018-01-27T10:06:12.352Z,4920
2018-01-27T10:07:12.067Z,4940
2018-01-27T10:08:12.078Z,4980
2018-01-27T10:09:12.048Z,5068
2018-01-27T10:10:12.155Z,5100
2018-01-27T10:11:12.110Z,5064
2018-01-27T10:12:12.226Z,5004
2018-01-27T10:13:11.806Z,4948
2018-01-27T10:14:11.982Z,4832
2018-01-27T10:15:11.958Z,4692
2018-01-27T10:16:12.495Z,4588
2018-01-27T10:17:11.955Z,4432
2018-01-27T10:18:12.217Z,4348
2018-01-27T10:19:11.649Z,4300
2018-01-27T10:20:12.166Z,4276
2018-01-27T10:21:11.903Z,4292
2018-01-27T10:22:11.605Z,4344
2018-01-27T10:23:11.868Z,4452
2018-01-27T10:24:11.843Z,4632
2018-01-27T10:25:11.860Z,4760
2018-01-27T10:26:12.103Z,4812
2018-01-27T10:27:11.809Z,4812
2018-01-27T10:28:11.541Z,4744
2018-01-27T10:29:12.063Z,4716
2018-01-27T10:30:12.058Z,4764
2018-01-27T10:31:11.758Z,4792
2018-01-27T10:32:12.027Z,4816
2018-01-27T10:33:12.009Z,4936
2018-01-27T10:34:11.719Z,5064
2018-01-27T10:35:11.715Z,5216
2018-01-27T10:36:11.702Z,5336
2018-01-27T10:37:11.405Z,5440
2018-01-27T10:38:11.715Z,5532
2018-01-27T10:39:11.677Z,5632
2018-01-27T10:40:11.928Z,5740
2018-01-27T10:41:11.627Z,5820
2018-01-27T10:42:11.615Z,5888
2018-01-27T10:43:11.598Z,5932
2018-01-27T10:44:11.594Z,5900
2018-01-27T10:45:11.338Z,5824
2018-01-27T10:46:12.112Z,5688
2018-01-27T10:47:11.557Z,5508
2018-01-27T10:48:11.587Z,5272
2018-01-27T10:49:11.250Z,5056
2018-01-27T10:50:11.532Z,4884
2018-01-27T10:51:11.778Z,4764
2018-01-27T10:52:11.793Z,4724
2018-01-27T10:53:11.491Z,4688
2018-01-27T10:54:11.196Z,4636
2018-01-27T10:55:11.463Z,4612
2018-01-27T10:56:11.706Z,4636
2018-01-27T10:57:11.696Z,4652
2018-01-27T10:58:11.687Z,4692
2018-01-27T10:59:11.402Z,4740
2018-01-27T11:00:11.384Z,4808
2018-01-27T11:01:11.390Z,4872
2018-01-27T11:02:11.087Z,4904
2018-01-27T11:03:11.411Z,4876
2018-01-27T11:04:11.338Z,4808
2018-01-27T11:05:11.593Z,4704
2018-01-27T11:06:11.853Z,4636
2018-01-27T11:07:11.577Z,4580
2018-01-27T11:08:11.018Z,4528
2018-01-27T11:09:11.578Z,4492
2018-01-27T11:10:11.537Z,4512
2018-01-27T11:11:10.978Z,4536
2018-01-27T11:12:11.558Z,4620
2018-01-27T11:13:11.493Z,4724
2018-01-27T11:14:10.933Z,4760
2018-01-27T11:15:11.469Z,4780
2018-01-27T11:16:10.958Z,4804
2018-01-27T11:17:11.175Z,4824
2018-01-27T11:18:11.187Z,4804
2018-01-27T11:19:10.873Z,4764
2018-01-27T11:20:11.401Z,4832
2018-01-27T11:21:11.133Z,4860
2018-01-27T11:22:10.838Z,4840
2018-01-27T11:23:11.375Z,4728
2018-01-27T11:24:11.086Z,4636
2018-01-27T11:25:11.356Z,4720
2018-01-27T11:26:11.071Z,4824
2018-01-27T11:27:11.040Z,4836
2018-01-27T11:28:11.047Z,4732
2018-01-27T11:29:11.283Z,4628
2018-01-27T11:30:11.032Z,4548
2018-01-27T11:31:11.023Z,4440
2018-01-27T11:32:11.264Z,4272
2018-01-27T11:33:11.523Z,4108
2018-01-27T11:34:10.954Z,3924
2018-01-27T11:35:10.671Z,3708
2018-01-27T11:36:10.936Z,3480
2018-01-27T11:37:10.652Z,3272
2018-01-27T11:38:10.889Z,3056
2018-01-27T11:39:10.883Z,2876
2018-01-27T11:40:10.881Z,2716
2018-01-27T11:41:10.853Z,2716
2018-01-27T11:42:10.576Z,2856
2018-01-27T11:43:11.117Z,2872
2018-01-27T11:44:11.082Z,2748
2018-01-27T11:45:10.566Z,2628
2018-01-27T11:46:10.789Z,2520
2018-01-27T11:47:10.794Z,2444
2018-01-27T11:48:10.809Z,2512
2018-01-27T11:49:10.477Z,2688
2018-01-27T11:50:11.004Z,2748
2018-01-27T11:51:10.458Z,2636
2018-01-27T11:52:10.712Z,2508
2018-01-27T11:53:10.997Z,2532
2018-01-27T11:54:10.685Z,2536
2018-01-27T11:55:10.412Z,2428
2018-01-27T11:56:10.382Z,2344
2018-01-27T11:57:10.926Z,2176
2018-01-27T11:58:10.903Z,1960
2018-01-27T11:59:10.619Z,1764
2018-01-27T12:00:10.364Z,1648
2018-01-27T12:01:10.315Z,1592
2018-01-27T12:02:10.302Z,1596
2018-01-27T12:03:10.560Z,1656
2018-01-27T12:04:10.278Z,1732
2018-01-27T12:05:10.533Z,1800
2018-01-27T12:06:10.523Z,1860
2018-01-27T12:07:10.507Z,1936
2018-01-27T12:08:10.264Z,2024
2018-01-27T12:09:10.526Z,2124
2018-01-27T12:10:10.737Z,2256
2018-01-27T12:11:10.184Z,2472
2018-01-27T12:12:10.462Z,2708
2018-01-27T12:13:10.159Z,2868
2018-01-27T12:14:10.978Z,2996
2018-01-27T12:15:10.402Z,3084
2018-01-27T12:16:10.415Z,3144
2018-01-27T12:17:10.106Z,3060
2018-01-27T12:18:10.086Z,2820
2018-01-27T12:19:10.343Z,2540
2018-01-27T12:20:10.329Z,2436
2018-01-27T12:21:10.602Z,2452
2018-01-27T12:22:10.031Z,2512
2018-01-27T12:23:10.842Z,2192
2018-01-27T12:24:10.285Z,2156
2018-01-27T12:25:10.533Z,2188
2018-01-27T12:26:09.980Z,2292
2018-01-27T12:27:09.963Z,2404
2018-01-27T12:28:09.955Z,2732
2018-01-27T12:29:10.207Z,3064
2018-01-27T12:30:10.192Z,3484
2018-01-27T12:31:10.206Z,3928
2018-01-27T12:32:10.179Z,4316
2018-01-27T12:33:10.151Z,4592
2018-01-27T12:34:10.142Z,4792
2018-01-27T12:35:09.850Z,4896
2018-01-27T12:36:10.381Z,4840
2018-01-27T12:37:10.369Z,4756
2018-01-27T12:38:10.357Z,4768
2018-01-27T12:39:10.073Z,4756
2018-01-27T12:40:09.801Z,4560
2018-01-27T12:41:10.060Z,4436
2018-01-27T12:42:10.027Z,4516
2018-01-27T12:43:10.016Z,4548
2018-01-27T12:44:10.030Z,4696
2018-01-27T12:45:09.992Z,4836
2018-01-27T12:46:09.712Z,4808
2018-01-27T12:47:09.977Z,4668
2018-01-27T12:48:09.960Z,4732
2018-01-27T12:49:10.217Z,4956
2018-01-27T12:50:10.220Z,4988
2018-01-27T12:51:09.918Z,4756
2018-01-27T12:52:09.905Z,4580
2018-01-27T12:53:09.622Z,4432
2018-01-27T12:54:09.871Z,4284
2018-01-27T12:55:10.172Z,4128
2018-01-27T12:56:10.403Z,3944
2018-01-27T12:57:10.172Z,3928
2018-01-27T12:58:09.610Z,4112
2018-01-27T12:59:09.527Z,4240
2018-01-27T13:00:09.543Z,4492
2018-01-27T13:01:10.342Z,4420
2018-01-27T13:02:09.773Z,4260
2018-01-27T13:03:09.504Z,4128
2018-01-27T13:04:09.731Z,3932
2018-01-27T13:05:09.732Z,3608
2018-01-27T13:06:09.680Z,3332
2018-01-27T13:07:09.965Z,3024
2018-01-27T13:08:09.428Z,2800
2018-01-27T13:09:09.454Z,2744
2018-01-27T13:10:09.925Z,2784
2018-01-27T13:11:09.402Z,2828
2018-01-27T13:12:09.408Z,2868
2018-01-27T13:13:09.354Z,2880
2018-01-27T13:14:09.364Z,2876
2018-01-27T13:15:09.904Z,2864
2018-01-27T13:16:09.329Z,2804
2018-01-27T13:17:10.139Z,2620
2018-01-27T13:18:09.553Z,2488
2018-01-27T13:19:10.090Z,2460
2018-01-27T13:20:09.529Z,2416
2018-01-27T13:21:09.261Z,2200
2018-01-27T13:22:09.759Z,2020
2018-01-27T13:23:09.488Z,2056
2018-01-27T13:24:09.757Z,2148
2018-01-27T13:25:09.755Z,2144
2018-01-27T13:26:09.450Z,2116
2018-01-27T13:27:09.432Z,2108
2018-01-27T13:28:09.460Z,2292
2018-01-27T13:29:09.411Z,2564
2018-01-27T13:30:09.113Z,2916
2018-01-27T13:31:09.395Z,3512
2018-01-27T13:32:09.383Z,4264
2018-01-27T13:33:09.075Z,5088
2018-01-27T13:34:09.645Z,5872
2018-01-27T13:35:09.601Z,5624
2018-01-27T13:36:09.607Z,5176
2018-01-27T13:37:09.056Z,4936
2018-01-27T13:38:09.274Z,4828
2018-01-27T13:39:09.020Z,4764
2018-01-27T13:40:09.565Z,5000
2018-01-27T13:41:09.265Z,4904
2018-01-27T13:42:09.268Z,4344
2018-01-27T13:43:09.487Z,4104
2018-01-27T13:44:08.952Z,4044
2018-01-27T13:45:09.473Z,4188
2018-01-27T13:46:09.210Z,4232
2018-01-27T13:47:09.166Z,4316
2018-01-27T13:48:08.884Z,4356
2018-01-27T13:49:09.178Z,4296
2018-01-27T13:50:09.156Z,4216
2018-01-27T13:51:09.401Z,4340
2018-01-27T13:52:09.692Z,4292
2018-01-27T13:53:09.149Z,4152
2018-01-27T13:54:08.830Z,4116
2018-01-27T13:55:08.802Z,4252
2018-01-27T13:56:09.082Z,3868
2018-01-27T13:57:09.083Z,3520
2018-01-27T13:58:09.059Z,3640
2018-01-27T13:59:09.060Z,3856
2018-01-27T14:00:09.011Z,3728